Time;durP1;ratioP1;P1;durP2;ratioP2;P2;SDS_P1;SDS_P2;PMS_P1;PMS_P2;Temp;Humidity;BMP_temperature;BMP_pressure;BME280_temperature;BME280_humidity;BME280_pressure;Samples;Min_cycle;Max_cycle;Signal;HPM_P1;HPM_P2
2023/01/30 00:02:14;;;;;;;12.53;7.90;;;2.50;99.90;;;;;;5221672;28;20199;-45
2023/01/30 00:04:44;;;;;;;13.00;9.70;;;2.50;99.90;;;;;;5217828;28;20177;-47
2023/01/30 00:07:15;;;;;;;12.33;8.57;;;2.50;99.90;;;;;;5220319;28;20543;-46
2023/01/30 00:09:46;;;;;;;11.00;7.83;;;2.40;99.90;;;;;;5185612;28;20198;-45
2023/01/30 00:12:17;;;;;;;13.27;8.73;;;2.50;99.90;;;;;;5214342;28;20211;-46
2023/01/30 00:14:47;;;;;;;8.97;8.07;;;2.50;99.90;;;;;;5220723;28;20925;-47
2023/01/30 00:17:18;;;;;;;14.60;9.37;;;2.40;99.90;;;;;;5221015;28;20182;-46
2023/01/30 00:19:48;;;;;;;11.43;8.00;;;2.40;99.90;;;;;;5223449;28;20208;-47
2023/01/30 00:22:19;;;;;;;12.70;8.83;;;2.40;99.90;;;;;;5229976;28;20663;-47
2023/01/30 00:24:50;;;;;;;10.20;8.57;;;2.60;99.90;;;;;;5228220;28;20182;-46
2023/01/30 00:27:20;;;;;;;12.20;9.27;;;2.50;99.90;;;;;;5223335;28;20190;-46
2023/01/30 00:29:51;;;;;;;10.47;7.90;;;2.50;99.90;;;;;;5224521;28;20179;-47
2023/01/30 00:32:25;;;;;;;12.80;9.23;;;2.40;99.90;;;;;;5198325;28;20211;-47
2023/01/30 00:34:55;;;;;;;13.40;9.07;;;2.40;99.90;;;;;;5209649;28;20186;-46
2023/01/30 00:37:26;;;;;;;12.50;9.20;;;2.50;99.90;;;;;;5212116;28;20429;-46
2023/01/30 00:39:57;;;;;;;14.93;9.50;;;2.40;99.90;;;;;;5218483;28;20202;-46
2023/01/30 00:48:06;;;;;;;16.07;9.70;;;2.50;99.90;;;;;;5227641;28;20444;-47
2023/01/30 00:50:43;;;;;;;15.90;10.80;;;2.60;99.90;;;;;;5203896;28;21032;-45
2023/01/30 00:53:14;;;;;;;15.40;10.17;;;2.60;99.90;;;;;;5228004;28;20190;-47
2023/01/30 00:55:45;;;;;;;12.60;9.80;;;2.50;99.90;;;;;;5230156;28;20418;-45
2023/01/30 00:58:16;;;;;;;15.13;10.80;;;2.50;99.90;;;;;;5225031;28;20809;-47
2023/01/30 01:00:46;;;;;;;16.13;9.90;;;2.30;99.90;;;;;;5222652;28;20209;-47
2023/01/30 01:03:17;;;;;;;15.53;9.87;;;2.40;99.90;;;;;;5193446;28;20175;-44
2023/01/30 01:05:48;;;;;;;18.07;9.80;;;2.50;99.90;;;;;;5219761;28;20325;-45
2023/01/30 01:08:19;;;;;;;18.30;10.50;;;2.50;99.90;;;;;;5208372;28;20186;-45
2023/01/30 01:10:49;;;;;;;14.20;9.93;;;2.50;99.90;;;;;;5218473;28;20678;-46
2023/01/30 01:13:20;;;;;;;15.00;9.93;;;2.50;99.90;;;;;;5205971;28;20197;-48
2023/01/30 01:15:50;;;;;;;17.70;10.47;;;2.40;99.90;;;;;;5216413;28;20191;-47
2023/01/30 01:18:21;;;;;;;15.00;10.60;;;2.50;99.90;;;;;;5206553;28;20194;-47
2023/01/30 01:20:51;;;;;;;17.70;10.47;;;2.40;99.90;;;;;;5224007;28;20221;-48
2023/01/30 01:23:22;;;;;;;12.43;9.63;;;2.40;99.90;;;;;;5222107;28;20190;-48
2023/01/30 01:25:53;;;;;;;22.27;10.83;;;2.40;99.90;;;;;;5203078;28;20184;-48
2023/01/30 01:28:23;;;;;;;16.63;11.07;;;2.40;99.90;;;;;;5227820;28;20195;-48
2023/01/30 01:30:54;;;;;;;14.37;10.33;;;2.40;99.90;;;;;;5198563;28;20242;-47
2023/01/30 01:33:28;;;;;;;15.60;11.50;;;2.40;99.90;;;;;;5227320;28;20205;-47
2023/01/30 01:35:58;;;;;;;20.33;11.17;;;2.40;99.90;;;;;;5212389;28;20666;-46
2023/01/30 01:38:29;;;;;;;13.73;10.47;;;2.40;99.90;;;;;;5238869;28;20437;-47
2023/01/30 01:41:04;;;;;;;17.20;11.47;;;2.30;99.90;;;;;;5218585;28;20680;-47
2023/01/30 01:43:38;;;;;;;13.50;9.97;;;2.40;99.90;;;;;;5227104;28;20206;-47
2023/01/30 01:46:15;;;;;;;16.10;11.17;;;2.30;99.90;;;;;;5223636;28;20436;-47
2023/01/30 01:48:54;;;;;;;14.77;10.03;;;2.40;99.90;;;;;;5209759;28;20437;-47
2023/01/30 01:51:30;;;;;;;15.93;11.30;;;2.50;99.90;;;;;;5224223;28;20825;-47
2023/01/30 01:54:06;;;;;;;19.47;11.60;;;2.40;99.90;;;;;;5207161;28;20438;-47
2023/01/30 01:56:42;;;;;;;19.90;10.73;;;2.40;99.90;;;;;;5217719;28;20429;-47
2023/01/30 01:59:19;;;;;;;18.53;11.10;;;2.50;99.90;;;;;;5221770;28;20441;-48
2023/01/30 02:01:51;;;;;;;17.00;11.60;;;2.40;99.90;;;;;;5221994;28;20815;-47
2023/01/30 02:07:13;;;;;;;17.83;11.97;;;2.40;99.90;;;;;;5212278;28;20792;-47
2023/01/30 02:09:44;;;;;;;20.87;12.30;;;2.40;99.90;;;;;;5220287;28;21007;-47
2023/01/30 02:12:14;;;;;;;24.83;12.10;;;2.40;99.90;;;;;;5214040;28;20501;-47
2023/01/30 02:14:47;;;;;;;17.83;12.07;;;2.30;99.90;;;;;;5207570;28;20276;-47
2023/01/30 02:17:18;;;;;;;20.20;12.30;;;2.30;99.90;;;;;;5206878;28;20485;-47
2023/01/30 02:20:06;;;;;;;22.03;14.03;;;2.20;99.90;;;;;;5184734;28;20437;-47
2023/01/30 02:22:59;;;;;;;19.90;12.70;;;2.20;99.90;;;;;;5224866;28;20945;-48
2023/01/30 02:26:07;;;;;;;21.40;13.60;;;2.10;99.90;;;;;;5221051;28;20498;-47
2023/01/30 02:29:04;;;;;;;20.53;13.07;;;2.20;99.90;;;;;;5223888;28;20437;-47
2023/01/30 02:31:43;;;;;;;18.67;13.27;;;2.10;99.90;;;;;;5193054;28;20462;-47
2023/01/30 02:34:34;;;;;;;23.00;13.30;;;2.00;99.90;;;;;;5225328;28;20429;-46
2023/01/30 02:37:05;;;;;;;20.00;12.83;;;2.10;99.90;;;;;;5226862;28;20448;-47
2023/01/30 02:40:13;;;;;;;20.33;13.93;;;2.10;99.90;;;;;;5226739;28;20441;-46
2023/01/30 02:42:55;;;;;;;21.60;13.47;;;2.10;99.90;;;;;;5224750;28;20257;-46
2023/01/30 02:45:40;;;;;;;20.73;14.20;;;2.10;99.90;;;;;;5227083;28;20437;-47
2023/01/30 02:48:35;;;;;;;23.93;14.17;;;2.10;99.90;;;;;;5215247;28;20472;-46
2023/01/30 02:51:29;;;;;;;22.20;13.80;;;2.00;99.90;;;;;;5232357;28;20921;-47
2023/01/30 02:54:00;;;;;;;26.00;15.83;;;2.10;99.90;;;;;;5222674;28;20469;-47
2023/01/30 02:56:51;;;;;;;23.73;15.13;;;2.00;99.90;;;;;;5218678;28;20454;-46
2023/01/30 02:59:39;;;;;;;23.07;14.97;;;2.00;99.90;;;;;;5224033;28;20614;-46
2023/01/30 03:02:21;;;;;;;24.07;14.33;;;1.90;99.90;;;;;;5213426;28;20559;-47
2023/01/30 03:05:18;;;;;;;22.63;14.43;;;1.90;99.90;;;;;;5216960;28;20497;-47
2023/01/30 03:08:12;;;;;;;24.30;14.83;;;1.90;99.90;;;;;;5212930;28;20429;-47
2023/01/30 03:10:57;;;;;;;24.30;15.40;;;1.90;99.90;;;;;;5205995;28;20532;-47
2023/01/30 03:14:05;;;;;;;24.90;15.27;;;1.90;99.90;;;;;;5208783;28;20446;-47
2023/01/30 03:16:40;;;;;;;26.10;14.50;;;1.90;99.90;;;;;;5199353;28;20515;-47
2023/01/30 03:19:12;;;;;;;25.23;14.70;;;1.90;99.90;;;;;;5217275;28;20491;-47
2023/01/30 03:21:44;;;;;;;26.73;15.17;;;2.00;99.90;;;;;;5217919;28;20599;-46
2023/01/30 03:24:16;;;;;;;23.57;14.13;;;2.10;99.90;;;;;;5202090;28;20430;-47
2023/01/30 03:26:53;;;;;;;20.60;13.60;;;2.10;99.90;;;;;;5198048;28;20947;-49
2023/01/30 03:29:24;;;;;;;22.43;13.80;;;2.10;99.90;;;;;;5221796;28;20429;-46
2023/01/30 03:31:55;;;;;;;22.93;13.43;;;2.10;99.90;;;;;;5200222;28;20460;-46
2023/01/30 03:34:25;;;;;;;20.50;13.63;;;2.10;99.90;;;;;;5203707;28;20194;-47
2023/01/30 03:36:56;;;;;;;19.00;13.40;;;2.10;99.90;;;;;;5201487;28;20179;-46
2023/01/30 03:39:27;;;;;;;21.20;14.47;;;2.20;99.90;;;;;;5206323;28;20175;-48
2023/01/30 03:41:57;;;;;;;21.47;13.83;;;2.20;99.90;;;;;;5213217;28;20575;-47
2023/01/30 03:44:28;;;;;;;25.50;14.23;;;2.20;99.90;;;;;;5202035;28;20179;-47
2023/01/30 03:46:58;;;;;;;19.20;12.70;;;2.20;99.90;;;;;;5205500;28;20182;-47
2023/01/30 03:49:29;;;;;;;24.60;15.20;;;2.20;99.90;;;;;;5193389;28;20205;-48
2023/01/30 03:52:00;;;;;;;31.27;15.37;;;2.20;99.90;;;;;;5207506;28;20291;-47
2023/01/30 03:54:30;;;;;;;21.50;12.93;;;2.30;99.90;;;;;;5214397;28;20195;-48
2023/01/30 03:57:01;;;;;;;24.00;14.30;;;2.20;99.90;;;;;;5222176;28;20187;-47
2023/01/30 03:59:31;;;;;;;26.60;14.90;;;2.30;99.90;;;;;;5223168;28;20666;-48
2023/01/30 04:02:02;;;;;;;19.43;13.70;;;2.20;99.90;;;;;;5223275;28;20243;-47
2023/01/30 04:04:33;;;;;;;21.80;14.00;;;2.30;99.90;;;;;;5217808;28;20539;-47
2023/01/30 04:07:04;;;;;;;20.10;13.23;;;2.30;99.90;;;;;;5204064;28;20230;-47
2023/01/30 04:09:34;;;;;;;24.57;14.23;;;2.30;99.90;;;;;;5224585;28;20763;-47
2023/01/30 04:12:05;;;;;;;23.80;13.93;;;2.30;99.90;;;;;;5224792;28;20214;-49
2023/01/30 04:14:36;;;;;;;22.07;14.17;;;2.30;99.90;;;;;;5225903;28;20187;-47
2023/01/30 04:17:07;;;;;;;20.13;13.50;;;2.40;99.90;;;;;;5223183;28;20201;-48
2023/01/30 04:19:37;;;;;;;23.47;13.53;;;2.40;99.90;;;;;;5222672;28;20621;-47
2023/01/30 04:22:08;;;;;;;20.03;13.37;;;2.40;99.90;;;;;;5211356;28;20707;-47
2023/01/30 04:24:38;;;;;;;24.83;14.97;;;2.40;99.90;;;;;;5223717;28;20691;-49
2023/01/30 04:27:09;;;;;;;20.67;14.00;;;2.40;99.90;;;;;;5223980;28;20318;-48
2023/01/30 04:29:41;;;;;;;29.37;13.20;;;2.50;99.90;;;;;;5221627;28;20211;-48
2023/01/30 04:32:11;;;;;;;24.27;13.53;;;2.60;99.90;;;;;;5221603;28;20226;-47
2023/01/30 04:34:43;;;;;;;23.10;13.27;;;2.70;99.90;;;;;;5220410;28;20437;-47
2023/01/30 04:37:14;;;;;;;27.87;13.83;;;2.80;99.90;;;;;;5219663;28;20184;-47
2023/01/30 04:39:45;;;;;;;22.77;14.27;;;2.80;99.90;;;;;;5206423;28;20981;-47
2023/01/30 04:42:15;;;;;;;19.27;12.43;;;2.80;99.90;;;;;;5202151;28;20219;-47
2023/01/30 04:44:46;;;;;;;23.40;13.97;;;2.80;99.90;;;;;;5226883;28;20236;-47
2023/01/30 04:47:16;;;;;;;19.60;12.43;;;2.80;99.90;;;;;;5209464;28;20195;-47
2023/01/30 04:49:47;;;;;;;19.80;12.60;;;2.90;99.90;;;;;;5207503;28;20194;-46
2023/01/30 04:52:18;;;;;;;20.20;12.60;;;2.80;99.90;;;;;;5223980;28;20207;-47
2023/01/30 04:54:48;;;;;;;23.90;13.87;;;2.80;99.90;;;;;;5217806;28;20510;-48
2023/01/30 04:57:19;;;;;;;22.60;13.87;;;2.80;99.90;;;;;;5217702;28;20194;-47
2023/01/30 04:59:49;;;;;;;19.70;12.70;;;2.80;99.90;;;;;;5211195;28;20194;-46
2023/01/30 05:02:20;;;;;;;17.40;11.97;;;2.90;99.90;;;;;;5218199;28;20265;-46
2023/01/30 05:04:51;;;;;;;24.60;14.33;;;2.90;99.90;;;;;;5221034;28;20184;-47
2023/01/30 05:07:21;;;;;;;22.87;13.23;;;2.80;99.90;;;;;;5219925;28;20187;-46
2023/01/30 05:09:52;;;;;;;24.67;13.37;;;2.70;99.90;;;;;;5218284;28;20258;-48
2023/01/30 05:12:22;;;;;;;22.67;14.77;;;2.70;99.90;;;;;;5225803;28;20225;-48
2023/01/30 05:14:53;;;;;;;29.30;13.87;;;2.70;99.90;;;;;;5209499;28;20198;-48
2023/01/30 05:17:24;;;;;;;24.83;15.67;;;2.60;99.90;;;;;;5223750;28;20187;-47
2023/01/30 05:19:54;;;;;;;22.53;13.47;;;2.50;99.90;;;;;;5205038;28;20245;-48
2023/01/30 05:22:25;;;;;;;25.13;15.00;;;2.50;99.90;;;;;;5201877;28;20198;-49
2023/01/30 05:24:56;;;;;;;20.37;13.73;;;2.50;99.90;;;;;;5207594;28;20233;-47
2023/01/30 05:27:26;;;;;;;24.17;15.50;;;2.50;99.90;;;;;;5203548;28;20269;-47
2023/01/30 05:29:57;;;;;;;25.33;14.83;;;2.50;99.90;;;;;;5204990;28;20206;-48
2023/01/30 05:32:29;;;;;;;21.57;13.50;;;2.40;99.90;;;;;;5217336;28;20318;-48
2023/01/30 05:35:00;;;;;;;24.60;13.70;;;2.30;99.90;;;;;;5204703;28;20598;-48
2023/01/30 05:37:31;;;;;;;27.73;14.97;;;2.40;99.90;;;;;;5223680;28;20482;-47
2023/01/30 05:40:01;;;;;;;36.60;16.03;;;2.40;99.90;;;;;;5189418;28;20179;-46
2023/01/30 05:42:32;;;;;;;37.53;15.70;;;2.30;99.90;;;;;;5212208;28;20195;-47
2023/01/30 05:45:03;;;;;;;28.60;15.33;;;2.30;99.90;;;;;;5220904;28;20198;-47
2023/01/30 05:47:33;;;;;;;33.53;14.47;;;2.30;99.90;;;;;;5220812;28;20643;-49
2023/01/30 05:50:04;;;;;;;27.23;15.03;;;2.30;99.90;;;;;;5216299;28;20183;-48
2023/01/30 05:52:35;;;;;;;27.03;14.97;;;2.30;99.90;;;;;;5223325;28;20207;-49
2023/01/30 05:55:06;;;;;;;23.77;13.47;;;2.30;99.90;;;;;;5201340;28;20479;-48
2023/01/30 05:57:37;;;;;;;28.40;16.30;;;2.30;99.90;;;;;;5207580;28;20254;-47
2023/01/30 06:00:09;;;;;;;28.17;14.73;;;2.40;99.90;;;;;;5203191;28;20471;-48
2023/01/30 06:02:40;;;;;;;30.50;16.37;;;2.30;99.90;;;;;;5220842;28;20585;-49
2023/01/30 06:05:10;;;;;;;26.60;14.93;;;2.40;99.90;;;;;;5216937;28;20490;-49
2023/01/30 06:07:41;;;;;;;27.70;15.60;;;2.30;99.90;;;;;;5206877;28;20200;-49
2023/01/30 06:10:11;;;;;;;24.07;14.50;;;2.40;99.90;;;;;;5205187;28;20182;-48
2023/01/30 06:12:44;;;;;;;25.97;15.43;;;2.30;99.90;;;;;;5219389;28;20227;-48
2023/01/30 06:15:14;;;;;;;27.50;16.00;;;2.30;99.90;;;;;;5220068;28;21601;-48
2023/01/30 06:17:45;;;;;;;23.77;15.50;;;2.30;99.90;;;;;;5222756;28;20250;-48
2023/01/30 06:20:16;;;;;;;31.90;16.10;;;2.40;99.90;;;;;;5208050;28;20235;-47
2023/01/30 06:22:49;;;;;;;30.13;15.77;;;2.50;99.90;;;;;;5187951;28;20213;-49
2023/01/30 06:25:20;;;;;;;27.20;15.37;;;2.50;99.90;;;;;;5221339;28;20187;-48
2023/01/30 06:27:50;;;;;;;24.47;15.83;;;2.50;99.90;;;;;;5204292;28;20769;-47
2023/01/30 06:30:21;;;;;;;23.03;14.87;;;2.50;99.90;;;;;;5207994;28;20194;-47
2023/01/30 06:32:52;;;;;;;26.10;15.13;;;2.50;99.90;;;;;;5221457;28;20272;-48
2023/01/30 06:35:22;;;;;;;33.00;14.17;;;2.70;99.90;;;;;;5225507;28;20218;-49
2023/01/30 06:37:53;;;;;;;33.43;14.83;;;2.60;99.90;;;;;;5192181;28;20186;-48
2023/01/30 06:40:23;;;;;;;28.90;14.87;;;2.70;99.90;;;;;;5215861;28;20207;-48
2023/01/30 06:42:54;;;;;;;23.33;12.73;;;2.70;99.90;;;;;;5220833;28;20231;-49
2023/01/30 06:45:24;;;;;;;23.83;13.80;;;2.60;99.90;;;;;;5222361;28;20565;-48
2023/01/30 06:47:55;;;;;;;22.67;14.20;;;2.70;99.90;;;;;;5209397;28;20286;-48
2023/01/30 06:50:27;;;;;;;25.07;14.43;;;2.70;99.90;;;;;;5201329;28;20199;-48
2023/01/30 06:53:05;;;;;;;27.50;15.50;;;2.80;99.90;;;;;;5222064;28;20211;-48
2023/01/30 06:55:37;;;;;;;27.27;14.20;;;2.90;99.90;;;;;;5221441;28;20445;-48
2023/01/30 06:58:13;;;;;;;20.70;12.77;;;2.90;99.90;;;;;;5190221;28;20436;-48
2023/01/30 07:00:44;;;;;;;19.37;13.17;;;3.00;99.90;;;;;;5202922;28;20526;-50
2023/01/30 07:03:17;;;;;;;23.47;13.90;;;2.90;99.90;;;;;;5220422;28;20921;-47
2023/01/30 07:05:47;;;;;;;20.40;12.90;;;3.00;99.90;;;;;;5222908;28;20183;-48
2023/01/30 07:08:18;;;;;;;18.57;12.03;;;3.10;99.90;;;;;;5203528;28;20658;-48
2023/01/30 07:10:49;;;;;;;14.27;11.40;;;3.10;99.90;;;;;;5222779;28;20198;-47
2023/01/30 07:13:20;;;;;;;19.20;11.30;;;3.20;99.90;;;;;;5213484;28;20444;-48
2023/01/30 07:15:50;;;;;;;15.93;11.13;;;3.20;99.90;;;;;;5218319;28;20647;-48
2023/01/30 07:18:21;;;;;;;18.90;10.83;;;3.20;99.90;;;;;;5219723;28;20332;-50
2023/01/30 07:20:51;;;;;;;11.53;9.30;;;3.20;99.90;;;;;;5221267;28;20289;-48
2023/01/30 07:23:22;;;;;;;14.43;10.03;;;3.20;99.90;;;;;;5221704;28;20832;-47
2023/01/30 07:25:54;;;;;;;16.00;10.13;;;3.20;99.90;;;;;;5220970;28;20681;-48
2023/01/30 07:28:24;;;;;;;11.70;9.60;;;3.30;99.90;;;;;;5209282;28;20182;-47
2023/01/30 07:30:58;;;;;;;13.40;10.13;;;3.30;99.90;;;;;;5194348;28;20453;-46
2023/01/30 07:33:29;;;;;;;12.97;9.53;;;3.40;99.90;;;;;;5211073;28;20187;-48
2023/01/30 07:36:00;;;;;;;18.27;10.33;;;3.50;99.90;;;;;;5223484;28;20468;-47
2023/01/30 07:38:30;;;;;;;13.23;9.27;;;3.50;99.90;;;;;;5212177;28;20564;-48
2023/01/30 07:41:01;;;;;;;15.87;9.23;;;3.50;99.90;;;;;;5223409;28;20214;-49
2023/01/30 07:43:32;;;;;;;20.97;9.83;;;3.60;99.90;;;;;;5221982;28;20735;-47
2023/01/30 07:46:02;;;;;;;10.77;9.07;;;3.60;99.90;;;;;;5212586;28;20666;-47
2023/01/30 07:48:33;;;;;;;10.70;8.17;;;3.60;99.90;;;;;;5222419;28;20195;-47
2023/01/30 07:51:04;;;;;;;12.20;8.77;;;3.60;99.90;;;;;;5223067;28;20204;-48
2023/01/30 07:53:34;;;;;;;8.00;7.17;;;3.60;99.90;;;;;;5210219;28;23379;-49
2023/01/30 07:56:13;;;;;;;9.80;8.33;;;3.60;99.90;;;;;;5215773;28;20195;-48
2023/01/30 07:58:43;;;;;;;12.60;8.60;;;3.70;99.90;;;;;;5209559;28;20210;-47
2023/01/30 08:01:15;;;;;;;11.97;8.17;;;3.70;99.90;;;;;;5215778;28;20478;-48
2023/01/30 08:03:47;;;;;;;11.87;7.73;;;3.70;99.90;;;;;;5197266;28;20822;-52
2023/01/30 08:06:18;;;;;;;8.27;7.40;;;3.80;99.90;;;;;;5216495;28;20490;-48
2023/01/30 08:08:49;;;;;;;13.97;8.87;;;3.80;99.90;;;;;;5195164;28;20433;-49
2023/01/30 08:11:20;;;;;;;10.17;8.00;;;3.80;99.90;;;;;;5201882;28;20227;-48
2023/01/30 08:13:51;;;;;;;10.90;7.23;;;3.90;99.90;;;;;;5216096;28;20191;-48
2023/01/30 08:16:21;;;;;;;9.90;7.90;;;3.90;99.90;;;;;;5218818;28;20268;-50
2023/01/30 08:18:52;;;;;;;10.20;7.73;;;4.00;99.90;;;;;;5214727;28;20215;-48
2023/01/30 08:21:23;;;;;;;12.77;8.37;;;4.00;99.90;;;;;;5213028;28;20569;-48
2023/01/30 08:23:53;;;;;;;14.60;10.30;;;4.00;99.90;;;;;;5198231;28;20187;-48
2023/01/30 08:26:24;;;;;;;14.03;9.50;;;3.90;99.90;;;;;;5222459;28;20183;-48
2023/01/30 08:28:55;;;;;;;8.70;7.80;;;4.10;99.90;;;;;;5205117;28;20185;-48
2023/01/30 08:31:25;;;;;;;9.57;7.80;;;4.10;99.90;;;;;;5197137;28;20921;-51
2023/01/30 08:33:56;;;;;;;7.53;6.60;;;4.10;99.90;;;;;;5217143;28;20185;-48
2023/01/30 08:36:27;;;;;;;8.30;6.00;;;4.20;99.90;;;;;;5203167;28;20191;-49
2023/01/30 08:38:58;;;;;;;9.37;6.57;;;4.20;99.90;;;;;;5205475;28;20672;-49
2023/01/30 08:41:29;;;;;;;8.47;6.17;;;4.30;99.90;;;;;;5205504;28;20470;-50
2023/01/30 08:43:59;;;;;;;6.97;5.50;;;4.30;99.90;;;;;;5223431;28;20184;-49
2023/01/30 08:46:30;;;;;;;7.10;6.10;;;4.20;99.90;;;;;;5203776;28;20662;-49
2023/01/30 08:49:01;;;;;;;8.27;6.53;;;4.30;99.90;;;;;;5220564;28;20221;-48
2023/01/30 08:51:32;;;;;;;8.43;5.87;;;4.20;99.90;;;;;;5199370;28;20321;-49
2023/01/30 08:54:02;;;;;;;10.03;5.17;;;4.20;99.90;;;;;;5201096;28;20192;-50
2023/01/30 08:56:34;;;;;;;5.13;4.63;;;4.30;99.90;;;;;;5221734;28;20480;-48
2023/01/30 08:59:05;;;;;;;8.97;5.43;;;4.20;99.90;;;;;;5220831;28;20269;-49
2023/01/30 09:01:37;;;;;;;9.10;6.70;;;4.20;99.90;;;;;;5220915;28;20522;-50
2023/01/30 09:04:07;;;;;;;10.40;7.87;;;4.30;99.90;;;;;;5204594;28;20444;-49
2023/01/30 09:06:38;;;;;;;18.17;7.00;;;4.20;99.90;;;;;;5219593;28;20459;-50
2023/01/30 09:09:09;;;;;;;9.67;6.63;;;4.20;99.90;;;;;;5202031;28;20191;-49
2023/01/30 09:11:39;;;;;;;9.80;6.80;;;4.20;99.90;;;;;;5216476;28;20222;-49
2023/01/30 09:14:10;;;;;;;8.50;5.90;;;4.30;99.90;;;;;;5205473;28;20193;-49
2023/01/30 09:16:41;;;;;;;8.73;5.50;;;4.30;99.90;;;;;;5217501;28;20205;-50
2023/01/30 09:19:11;;;;;;;4.20;3.80;;;4.40;99.90;;;;;;5217907;28;20281;-50
2023/01/30 09:21:42;;;;;;;6.40;5.57;;;4.30;99.90;;;;;;5215803;28;20228;-50
2023/01/30 09:24:13;;;;;;;5.23;4.83;;;4.40;99.90;;;;;;5216623;28;20192;-49
2023/01/30 09:26:44;;;;;;;6.60;5.57;;;4.60;99.90;;;;;;5224119;28;20185;-49
2023/01/30 09:29:14;;;;;;;7.30;5.00;;;4.70;99.90;;;;;;5220777;28;20280;-50
2023/01/30 09:31:45;;;;;;;5.93;5.37;;;4.70;99.90;;;;;;5202876;28;20219;-49
2023/01/30 09:34:16;;;;;;;6.07;4.80;;;4.70;99.90;;;;;;5218787;28;20571;-50
2023/01/30 09:36:47;;;;;;;5.20;4.70;;;4.80;99.90;;;;;;5221921;28;20189;-51
2023/01/30 09:39:17;;;;;;;9.47;4.17;;;4.80;99.90;;;;;;5211543;28;20201;-49
2023/01/30 09:42:03;;;;;;;5.77;4.40;;;4.90;99.90;;;;;;5214411;28;20216;-50
2023/01/30 09:45:12;;;;;;;4.27;3.33;;;4.90;99.90;;;;;;5221366;28;20189;-51
2023/01/30 09:47:59;;;;;;;10.70;3.40;;;4.80;99.90;;;;;;5199570;28;20435;-51
2023/01/30 09:51:00;;;;;;;6.20;2.97;;;4.90;99.90;;;;;;5203905;28;20497;-49
2023/01/30 09:53:46;;;;;;;10.70;2.77;;;5.10;99.90;;;;;;5211380;28;20434;-48
2023/01/30 09:56:17;;;;;;;6.73;2.20;;;5.10;99.90;;;;;;5194373;28;20440;-51
2023/01/30 09:58:50;;;;;;;3.40;2.07;;;5.20;99.90;;;;;;5200054;28;20444;-50
2023/01/30 10:02:11;;;;;;;10.30;2.40;;;5.30;99.90;;;;;;5219836;28;20221;-51
2023/01/30 10:04:46;;;;;;;2.77;1.93;;;5.20;99.90;;;;;;5167593;28;20501;-50
2023/01/30 10:07:23;;;;;;;12.03;3.13;;;5.10;99.90;;;;;;5198082;28;20431;-48
2023/01/30 10:10:00;;;;;;;7.00;2.40;;;5.10;99.90;;;;;;5214157;28;20853;-50
2023/01/30 10:12:37;;;;;;;10.70;1.97;;;5.10;99.90;;;;;;5218126;28;20577;-49
2023/01/30 10:15:27;;;;;;;7.33;3.40;;;5.20;99.90;;;;;;5214128;28;20766;-50
2023/01/30 10:18:07;;;;;;;13.87;2.60;;;5.20;99.90;;;;;;5208909;28;20872;-49
2023/01/30 10:20:42;;;;;;;10.80;2.30;;;5.20;99.90;;;;;;5219045;28;20807;-48
2023/01/30 10:23:24;;;;;;;8.47;1.77;;;5.30;99.90;;;;;;5216337;28;20882;-48
2023/01/30 10:26:01;;;;;;;8.90;2.33;;;5.40;99.90;;;;;;5197305;28;20870;-49
2023/01/30 10:28:37;;;;;;;13.00;2.60;;;5.50;99.90;;;;;;5220869;28;20444;-49
2023/01/30 10:31:14;;;;;;;10.03;2.63;;;5.60;99.90;;;;;;5216868;28;20462;-48
2023/01/30 10:34:01;;;;;;;12.27;2.33;;;5.70;99.90;;;;;;5216608;28;20447;-49
2023/01/30 10:36:40;;;;;;;11.03;2.03;;;5.80;99.90;;;;;;5198942;28;20458;-50
2023/01/30 10:39:29;;;;;;;10.17;3.10;;;5.80;99.90;;;;;;5203648;28;20960;-50
2023/01/30 10:42:19;;;;;;;7.90;2.20;;;5.80;99.90;;;;;;5199024;28;20538;-49
2023/01/30 10:44:51;;;;;;;10.93;2.73;;;5.90;99.90;;;;;;5216238;28;20449;-50
2023/01/30 10:47:50;;;;;;;8.97;2.47;;;5.90;99.90;;;;;;5201109;28;20950;-50
2023/01/30 10:50:44;;;;;;;8.90;2.70;;;5.90;99.90;;;;;;5219184;28;20566;-49
2023/01/30 10:53:40;;;;;;;8.77;1.77;;;5.90;99.90;;;;;;5203460;28;20464;-49
2023/01/30 10:56:35;;;;;;;5.10;2.20;;;6.00;99.90;;;;;;5201447;28;20513;-50
2023/01/30 10:59:20;;;;;;;7.50;2.27;;;5.90;99.90;;;;;;5214191;28;20944;-50
2023/01/30 11:01:58;;;;;;;10.93;2.87;;;5.90;99.90;;;;;;5202847;28;20468;-48
2023/01/30 11:04:31;;;;;;;7.17;2.23;;;5.90;99.90;;;;;;5198430;28;20449;-48
2023/01/30 11:07:02;;;;;;;18.67;3.00;;;5.90;99.90;;;;;;5217790;28;20433;-48
2023/01/30 11:09:46;;;;;;;8.60;3.33;;;5.70;99.90;;;;;;5215404;28;20995;-49
2023/01/30 11:12:17;;;;;;;13.13;2.83;;;5.80;99.90;;;;;;5186528;28;20491;-50
2023/01/30 11:14:57;;;;;;;12.60;3.10;;;6.00;99.90;;;;;;5201220;28;20441;-51
2023/01/30 11:17:37;;;;;;;11.43;2.83;;;6.10;99.90;;;;;;5214190;28;20217;-50
2023/01/30 11:20:17;;;;;;;11.77;2.80;;;6.10;99.90;;;;;;5217193;28;20441;-49
2023/01/30 11:23:20;;;;;;;9.03;2.60;;;6.10;99.90;;;;;;5199538;28;20925;-50
2023/01/30 11:25:56;;;;;;;14.60;2.90;;;6.20;99.90;;;;;;5200190;28;21010;-48
2023/01/30 11:28:32;;;;;;;10.43;2.87;;;6.40;99.90;;;;;;5220979;28;20433;-49
2023/01/30 11:31:03;;;;;;;8.20;2.23;;;6.70;99.90;;;;;;5180097;28;20488;-49
2023/01/30 11:33:37;;;;;;;17.53;3.43;;;6.70;99.90;;;;;;5202333;28;20477;-49
2023/01/30 11:36:26;;;;;;;12.63;3.80;;;6.80;99.90;;;;;;5203594;28;20183;-49
2023/01/30 11:39:23;;;;;;;11.93;2.93;;;6.90;99.90;;;;;;5203648;28;20584;-49
2023/01/30 11:41:54;;;;;;;8.70;3.40;;;6.90;99.90;;;;;;5216087;28;20477;-50
2023/01/30 11:44:36;;;;;;;11.50;3.10;;;7.00;99.90;;;;;;5219437;28;21024;-50
2023/01/30 11:47:16;;;;;;;23.63;4.80;;;6.80;99.90;;;;;;5216743;28;20183;-50
2023/01/30 11:49:51;;;;;;;11.17;3.30;;;6.70;99.90;;;;;;5221356;28;20446;-50
2023/01/30 11:52:27;;;;;;;15.20;3.40;;;6.70;99.90;;;;;;5204691;28;20851;-49
2023/01/30 11:55:04;;;;;;;18.13;4.50;;;6.80;99.90;;;;;;5219276;28;20449;-49
2023/01/30 11:57:49;;;;;;;24.93;6.67;;;6.70;99.90;;;;;;5221816;28;20448;-49
2023/01/30 12:00:23;;;;;;;7.13;2.10;;;6.50;99.90;;;;;;5203840;28;20433;-49
2023/01/30 12:03:01;;;;;;;15.53;2.90;;;6.40;99.90;;;;;;5212714;28;20472;-48
2023/01/30 12:05:38;;;;;;;12.30;4.03;;;6.30;99.90;;;;;;5197043;28;20448;-49
2023/01/30 12:08:22;;;;;;;8.27;1.83;;;6.10;99.90;;;;;;5201733;28;20471;-49
2023/01/30 12:10:57;;;;;;;2.20;1.80;;;5.90;99.90;;;;;;5220320;28;20479;-50
2023/01/30 12:13:31;;;;;;;6.83;2.00;;;5.80;99.90;;;;;;5201045;28;21027;-51
2023/01/30 12:16:19;;;;;;;11.83;2.97;;;5.50;99.90;;;;;;5219389;28;20952;-50
2023/01/30 12:19:02;;;;;;;9.00;2.93;;;5.20;99.90;;;;;;5220504;28;20455;-49
2023/01/30 12:22:06;;;;;;;8.37;2.23;;;5.30;99.90;;;;;;5214252;28;20868;-50
2023/01/30 12:24:47;;;;;;;4.30;1.57;;;5.30;99.90;;;;;;5206189;28;21011;-50
2023/01/30 12:27:47;;;;;;;7.97;3.00;;;5.40;99.90;;;;;;5212640;28;20803;-50
2023/01/30 12:30:23;;;;;;;6.43;2.63;;;5.40;99.90;;;;;;5225475;28;20447;-51
2023/01/30 12:32:59;;;;;;;7.53;2.77;;;5.50;99.90;;;;;;5219972;28;20452;-50
2023/01/30 12:35:45;;;;;;;11.60;2.70;;;5.50;99.90;;;;;;5226168;28;20780;-50
2023/01/30 12:38:46;;;;;;;3.83;2.40;;;5.70;99.90;;;;;;5218783;28;21310;-50
2023/01/30 12:41:54;;;;;;;29.50;2.53;;;6.00;99.90;;;;;;5212184;28;20471;-51
2023/01/30 12:44:39;;;;;;;16.30;3.33;;;6.20;99.90;;;;;;5220584;28;20435;-50
2023/01/30 12:47:58;;;;;;;11.47;2.40;;;6.40;99.90;;;;;;5217409;28;20429;-50
2023/01/30 12:50:33;;;;;;;19.23;3.57;;;6.40;99.90;;;;;;5212545;28;20440;-49
2023/01/30 12:53:41;;;;;;;18.77;2.67;;;6.60;99.90;;;;;;5217217;28;20459;-54
2023/01/30 12:56:11;;;;;;;11.37;3.77;;;6.80;99.90;;;;;;5218937;28;20455;-50
2023/01/30 12:59:09;;;;;;;11.60;2.60;;;6.90;99.90;;;;;;5221724;28;20441;-50
2023/01/30 13:01:49;;;;;;;8.47;2.60;;;7.10;99.90;;;;;;5181440;28;20288;-48
2023/01/30 13:04:38;;;;;;;23.70;4.17;;;7.00;99.90;;;;;;5217613;28;20512;-50
2023/01/30 13:07:31;;;;;;;12.23;3.10;;;7.10;99.90;;;;;;5223479;28;20941;-49
2023/01/30 13:10:24;;;;;;;12.90;3.77;;;7.30;99.90;;;;;;5202764;28;20445;-50
2023/01/30 13:13:18;;;;;;;12.00;2.30;;;7.30;99.90;;;;;;5221381;28;20534;-49
2023/01/30 13:16:14;;;;;;;10.73;2.33;;;7.10;99.90;;;;;;5219094;28;20953;-51
2023/01/30 13:18:51;;;;;;;10.90;2.40;;;7.00;99.90;;;;;;5213993;28;20812;-50
2023/01/30 13:21:39;;;;;;;25.60;4.73;;;6.90;99.90;;;;;;5188141;28;20469;-49
2023/01/30 13:24:22;;;;;;;7.03;2.23;;;6.80;99.90;;;;;;5203357;28;20980;-49
2023/01/30 13:26:57;;;;;;;9.10;2.80;;;6.70;99.90;;;;;;5206589;28;20456;-50
2023/01/30 13:29:30;;;;;;;10.20;2.37;;;6.70;99.90;;;;;;5217324;28;20792;-50
2023/01/30 13:32:05;;;;;;;8.97;2.70;;;6.60;99.90;;;;;;5215728;28;20511;-50
2023/01/30 13:34:43;;;;;;;21.37;2.50;;;6.60;99.90;;;;;;5217189;28;20448;-49
2023/01/30 13:37:16;;;;;;;9.70;2.40;;;6.80;99.90;;;;;;5217501;28;20433;-50